createdAt,value
2023-05-14T00:00:04.323Z,94832.00
2023-05-14T00:01:04.308Z,94834.00
2023-05-14T00:02:04.340Z,94832.00
2023-05-14T00:03:04.489Z,94836.00
2023-05-14T00:04:04.383Z,94832.00
2023-05-14T00:05:04.713Z,94832.00
2023-05-14T00:06:04.307Z,94832.00
2023-05-14T00:07:04.280Z,94832.00
2023-05-14T00:08:04.265Z,94834.00
2023-05-14T00:09:04.272Z,94834.00
2023-05-14T00:10:04.276Z,94834.00
2023-05-14T00:11:04.222Z,94834.00
2023-05-14T00:12:04.239Z,94832.00
2023-05-14T00:13:04.234Z,94832.00
2023-05-14T00:14:04.235Z,94836.00
2023-05-14T00:15:04.229Z,94832.00
2023-05-14T00:16:04.739Z,94832.00
2023-05-14T00:17:04.201Z,94832.00
2023-05-14T00:18:04.204Z,94830.00
2023-05-14T00:19:04.221Z,94826.00
2023-05-14T00:20:05.206Z,94830.00
2023-05-14T00:21:04.166Z,94826.00
2023-05-14T00:22:04.166Z,94826.00
2023-05-14T00:23:04.134Z,94824.00
2023-05-14T00:24:04.141Z,94826.00
2023-05-14T00:25:04.163Z,94824.00
2023-05-14T00:26:04.174Z,94818.00
2023-05-14T00:27:04.136Z,94822.00
2023-05-14T00:28:04.132Z,94822.00
2023-05-14T00:29:04.110Z,94820.00
2023-05-14T00:30:04.213Z,94822.00
2023-05-14T00:31:04.728Z,94818.00
2023-05-14T00:32:04.126Z,94820.00
2023-05-14T00:33:04.263Z,94818.00
2023-05-14T00:34:04.708Z,94818.00
2023-05-14T00:35:04.246Z,94818.00
2023-05-14T00:36:04.082Z,94820.00
2023-05-14T00:37:04.728Z,94818.00
2023-05-14T00:38:04.047Z,94818.00
2023-05-14T00:39:04.053Z,94820.00
2023-05-14T00:40:04.064Z,94822.00
2023-05-14T00:41:04.017Z,94822.00
2023-05-14T00:42:04.046Z,94822.00
2023-05-14T00:43:04.021Z,94824.00
2023-05-14T00:44:04.023Z,94824.00
2023-05-14T00:45:04.254Z,94824.00
2023-05-14T00:46:03.995Z,94826.00
2023-05-14T00:47:04.078Z,94820.00
2023-05-14T00:48:04.023Z,94822.00
2023-05-14T00:49:06.186Z,94822.00
2023-05-14T00:50:04.201Z,94820.00
2023-05-14T00:51:03.983Z,94818.00
2023-05-14T00:52:03.967Z,94818.00
2023-05-14T00:53:03.941Z,94817.00
2023-05-14T00:54:04.920Z,94818.00
2023-05-14T00:55:04.259Z,94818.00
2023-05-14T00:56:03.935Z,94817.00
2023-05-14T00:57:03.936Z,94822.00
2023-05-14T00:58:03.883Z,94817.00
2023-05-14T00:59:03.941Z,94817.00
2023-05-14T01:00:03.904Z,94822.00
2023-05-14T01:01:03.963Z,94817.00
2023-05-14T01:02:03.887Z,94820.00
2023-05-14T01:03:03.912Z,94818.00
2023-05-14T01:04:04.000Z,94818.00
2023-05-14T01:05:04.261Z,94818.00
2023-05-14T01:06:03.840Z,94818.00
2023-05-14T01:07:03.844Z,94817.00
2023-05-14T01:08:03.853Z,94817.00
2023-05-14T01:09:03.828Z,94817.00
2023-05-14T01:10:03.823Z,94809.00
2023-05-14T01:11:03.844Z,94811.00
2023-05-14T01:12:03.827Z,94811.00
2023-05-14T01:13:03.801Z,94811.00
2023-05-14T01:14:03.790Z,94809.00
2023-05-14T01:15:04.213Z,94809.00
2023-05-14T01:16:03.867Z,94815.00
2023-05-14T01:17:04.717Z,94809.00
2023-05-14T01:18:03.909Z,94809.00
2023-05-14T01:19:03.889Z,94809.00
2023-05-14T01:20:04.343Z,94809.00
2023-05-14T01:21:03.841Z,94809.00
2023-05-14T01:22:03.866Z,94807.00
2023-05-14T01:23:03.896Z,94809.00
2023-05-14T01:24:03.891Z,94809.00
2023-05-14T01:25:03.887Z,94811.00
2023-05-14T01:26:03.874Z,94811.00
2023-05-14T01:27:03.887Z,94813.00
2023-05-14T01:28:03.935Z,94813.00
2023-05-14T01:29:03.909Z,94811.00
2023-05-14T01:30:04.247Z,94811.00
2023-05-14T01:31:03.945Z,94811.00
2023-05-14T01:32:04.057Z,94811.00
2023-05-14T01:33:04.015Z,94809.00
2023-05-14T01:34:03.963Z,94809.00
2023-05-14T01:35:03.989Z,94809.00
2023-05-14T01:36:03.975Z,94815.00
2023-05-14T01:37:03.981Z,94811.00
2023-05-14T01:38:03.999Z,94809.00
2023-05-14T01:39:04.037Z,94811.00
2023-05-14T01:40:04.622Z,94811.00
2023-05-14T01:41:04.026Z,94811.00
2023-05-14T01:42:04.004Z,94811.00
2023-05-14T01:43:04.026Z,94811.00
2023-05-14T01:44:04.002Z,94811.00
2023-05-14T01:45:04.251Z,94811.00
2023-05-14T01:46:04.094Z,94811.00
2023-05-14T01:47:04.020Z,94809.00
2023-05-14T01:48:04.049Z,94809.00
2023-05-14T01:49:04.007Z,94809.00
2023-05-14T01:50:04.271Z,94809.00
2023-05-14T01:51:04.055Z,94811.00
2023-05-14T01:52:04.027Z,94811.00
2023-05-14T01:53:04.075Z,94811.00
2023-05-14T01:54:04.022Z,94809.00
2023-05-14T01:55:04.249Z,94809.00
2023-05-14T01:56:04.757Z,94807.00
2023-05-14T01:57:04.078Z,94807.00
2023-05-14T01:58:04.045Z,94809.00
2023-05-14T01:59:04.101Z,94809.00
2023-05-14T02:00:04.071Z,94805.00
2023-05-14T02:01:04.127Z,94807.00
2023-05-14T02:02:04.066Z,94803.00
2023-05-14T02:03:04.126Z,94803.00
2023-05-14T02:04:04.203Z,94803.00
2023-05-14T02:05:06.847Z,94803.00
2023-05-14T02:06:04.080Z,94803.00
2023-05-14T02:07:04.084Z,94803.00
2023-05-14T02:08:04.102Z,94803.00
2023-05-14T02:09:04.054Z,94801.00
2023-05-14T02:10:04.082Z,94799.00
2023-05-14T02:11:04.279Z,94799.00
2023-05-14T02:12:04.055Z,94801.00
2023-05-14T02:13:04.018Z,94797.00
2023-05-14T02:14:04.048Z,94797.00
2023-05-14T02:15:04.075Z,94795.00
2023-05-14T02:16:04.339Z,94795.00
2023-05-14T02:17:04.029Z,94795.00
2023-05-14T02:18:04.011Z,94795.00
2023-05-14T02:19:04.864Z,94791.00
2023-05-14T02:20:03.975Z,94791.00
2023-05-14T02:21:04.772Z,94791.00
2023-05-14T02:22:04.788Z,94787.00
2023-05-14T02:23:03.950Z,94787.00
2023-05-14T02:24:04.010Z,94789.00
2023-05-14T02:25:03.948Z,94791.00
2023-05-14T02:26:04.286Z,94787.00
2023-05-14T02:27:03.987Z,94787.00
2023-05-14T02:28:03.919Z,94789.00
2023-05-14T02:29:03.929Z,94785.00
2023-05-14T02:30:03.919Z,94785.00
2023-05-14T02:31:05.323Z,94785.00
2023-05-14T02:32:04.002Z,94785.00
2023-05-14T02:33:04.089Z,94783.00
2023-05-14T02:34:03.921Z,94785.00
2023-05-14T02:35:03.907Z,94785.00
2023-05-14T02:36:03.874Z,94783.00
2023-05-14T02:37:03.884Z,94783.00
2023-05-14T02:38:03.898Z,94781.00
2023-05-14T02:39:03.866Z,94779.00
2023-05-14T02:40:03.882Z,94779.00
2023-05-14T02:41:04.275Z,94779.00
2023-05-14T02:42:03.883Z,94777.00
2023-05-14T02:43:03.853Z,94775.00
2023-05-14T02:44:03.816Z,94771.00
2023-05-14T02:45:03.838Z,94773.00
2023-05-14T02:46:04.269Z,94771.00
2023-05-14T02:47:03.860Z,94767.00
2023-05-14T02:48:03.865Z,94766.00
2023-05-14T02:49:03.799Z,94766.00
2023-05-14T02:50:04.799Z,94767.00
2023-05-14T02:51:03.847Z,94767.00
2023-05-14T02:52:03.779Z,94767.00
2023-05-14T02:53:03.793Z,94769.00
2023-05-14T02:54:04.302Z,94767.00
2023-05-14T02:55:03.748Z,94767.00
2023-05-14T02:56:03.793Z,94766.00
2023-05-14T02:57:03.713Z,94766.00
2023-05-14T02:58:03.731Z,94767.00
2023-05-14T02:59:03.736Z,94767.00
2023-05-14T03:00:03.734Z,94767.00
2023-05-14T03:01:03.961Z,94766.00
2023-05-14T03:02:03.830Z,94766.00
2023-05-14T03:03:03.702Z,94766.00
2023-05-14T03:04:03.716Z,94766.00
2023-05-14T03:05:03.722Z,94766.00
2023-05-14T03:06:03.826Z,94760.00
2023-05-14T03:07:03.674Z,94764.00
2023-05-14T03:08:03.692Z,94764.00
2023-05-14T03:09:03.691Z,94762.00
2023-05-14T03:10:03.654Z,94762.00
2023-05-14T03:11:03.807Z,94762.00
2023-05-14T03:12:03.629Z,94764.00
2023-05-14T03:13:03.605Z,94764.00
2023-05-14T03:14:03.608Z,94764.00
2023-05-14T03:15:03.627Z,94766.00
2023-05-14T03:16:03.837Z,94766.00
2023-05-14T03:17:03.743Z,94766.00
2023-05-14T03:18:03.661Z,94764.00
2023-05-14T03:19:03.664Z,94762.00
2023-05-14T03:20:03.593Z,94760.00
2023-05-14T03:21:03.850Z,94760.00
2023-05-14T03:22:03.587Z,94758.00
2023-05-14T03:23:03.585Z,94754.00
2023-05-14T03:24:03.550Z,94754.00
2023-05-14T03:25:03.548Z,94754.00
2023-05-14T03:26:03.564Z,94752.00
2023-05-14T03:27:03.534Z,94752.00
2023-05-14T03:28:03.501Z,94752.00
2023-05-14T03:29:03.530Z,94752.00
2023-05-14T03:30:03.516Z,94750.00
2023-05-14T03:31:03.919Z,94754.00
2023-05-14T03:32:03.489Z,94750.00
2023-05-14T03:33:03.525Z,94750.00
2023-05-14T03:34:03.485Z,94752.00
2023-05-14T03:35:03.665Z,94752.00
2023-05-14T03:36:03.522Z,94752.00
2023-05-14T03:37:03.466Z,94750.00
2023-05-14T03:38:03.470Z,94752.00
2023-05-14T03:39:03.446Z,94752.00
2023-05-14T03:40:03.476Z,94754.00
2023-05-14T03:41:03.851Z,94756.00
2023-05-14T03:42:03.448Z,94756.00
2023-05-14T03:43:03.466Z,94756.00
2023-05-14T03:44:03.457Z,94758.00
2023-05-14T03:45:03.528Z,94758.00
2023-05-14T03:46:03.832Z,94756.00
2023-05-14T03:47:03.393Z,94758.00
2023-05-14T03:48:03.571Z,94760.00
2023-05-14T03:49:03.541Z,94760.00
2023-05-14T03:50:03.389Z,94762.00
2023-05-14T03:51:03.394Z,94762.00
2023-05-14T03:52:03.368Z,94764.00
2023-05-14T03:53:03.370Z,94764.00
2023-05-14T03:54:03.336Z,94766.00
2023-05-14T03:55:03.382Z,94764.00
2023-05-14T03:56:03.829Z,94762.00
2023-05-14T03:57:03.317Z,94766.00
2023-05-14T03:58:03.332Z,94764.00
2023-05-14T03:59:03.299Z,94766.00
2023-05-14T04:00:03.339Z,94764.00
2023-05-14T04:01:03.321Z,94766.00
2023-05-14T04:02:03.280Z,94764.00
2023-05-14T04:03:03.359Z,94766.00
2023-05-14T04:04:03.344Z,94764.00
2023-05-14T04:05:03.286Z,94762.00
2023-05-14T04:06:03.260Z,94764.00
2023-05-14T04:07:03.288Z,94764.00
2023-05-14T04:08:03.276Z,94762.00
2023-05-14T04:09:03.336Z,94764.00
2023-05-14T04:10:04.365Z,94764.00
2023-05-14T04:11:03.289Z,94764.00
2023-05-14T04:12:03.296Z,94760.00
2023-05-14T04:13:03.295Z,94760.00
2023-05-14T04:14:03.257Z,94758.00
2023-05-14T04:15:03.319Z,94758.00
2023-05-14T04:16:03.306Z,94756.00
2023-05-14T04:17:03.290Z,94756.00
2023-05-14T04:18:03.272Z,94754.00
2023-05-14T04:19:03.330Z,94754.00
2023-05-14T04:20:03.292Z,94752.00
2023-05-14T04:21:03.274Z,94750.00
2023-05-14T04:22:03.285Z,94752.00
2023-05-14T04:23:03.289Z,94750.00
2023-05-14T04:24:03.283Z,94748.00
2023-05-14T04:25:03.422Z,94748.00
2023-05-14T04:26:03.343Z,94746.00
2023-05-14T04:27:03.292Z,94746.00
2023-05-14T04:28:03.298Z,94746.00
2023-05-14T04:29:03.385Z,94748.00
2023-05-14T04:30:03.328Z,94748.00
2023-05-14T04:31:03.330Z,94746.00
2023-05-14T04:32:03.395Z,94746.00
2023-05-14T04:33:03.373Z,94748.00
2023-05-14T04:34:03.299Z,94750.00
2023-05-14T04:35:03.350Z,94744.00
2023-05-14T04:36:03.391Z,94748.00
2023-05-14T04:37:03.359Z,94752.00
2023-05-14T04:38:03.371Z,94752.00
2023-05-14T04:39:03.367Z,94754.00
2023-05-14T04:40:03.382Z,94752.00
2023-05-14T04:41:03.811Z,94754.00
2023-05-14T04:42:03.358Z,94754.00
2023-05-14T04:43:03.394Z,94756.00
2023-05-14T04:44:03.379Z,94756.00
2023-05-14T04:45:03.414Z,94756.00
2023-05-14T04:46:03.416Z,94756.00
2023-05-14T04:47:03.421Z,94758.00
2023-05-14T04:48:03.487Z,94754.00
2023-05-14T04:49:03.376Z,94756.00
2023-05-14T04:50:03.442Z,94752.00
2023-05-14T04:51:05.577Z,94754.00
2023-05-14T04:52:03.407Z,94754.00
2023-05-14T04:53:03.404Z,94754.00
2023-05-14T04:54:03.463Z,94752.00
2023-05-14T04:55:03.431Z,94752.00
2023-05-14T04:56:03.383Z,94752.00
2023-05-14T04:57:03.407Z,94752.00
2023-05-14T04:58:03.409Z,94754.00
2023-05-14T04:59:03.404Z,94752.00
2023-05-14T05:00:03.343Z,94752.00
2023-05-14T05:01:03.402Z,94752.00
2023-05-14T05:02:03.351Z,94750.00
2023-05-14T05:03:03.543Z,94748.00
2023-05-14T05:04:03.417Z,94748.00
2023-05-14T05:05:03.325Z,94752.00
2023-05-14T05:06:03.327Z,94752.00
2023-05-14T05:07:03.324Z,94752.00
2023-05-14T05:08:03.305Z,94758.00
2023-05-14T05:09:03.319Z,94756.00
2023-05-14T05:10:03.286Z,94758.00
2023-05-14T05:11:03.281Z,94760.00
2023-05-14T05:12:03.302Z,94760.00
2023-05-14T05:13:03.275Z,94762.00
2023-05-14T05:14:03.275Z,94762.00
2023-05-14T05:15:03.256Z,94762.00
2023-05-14T05:16:03.288Z,94760.00
2023-05-14T05:17:03.225Z,94764.00
2023-05-14T05:18:03.254Z,94762.00
2023-05-14T05:19:03.317Z,94762.00
2023-05-14T05:20:03.218Z,94760.00
2023-05-14T05:21:03.256Z,94760.00
2023-05-14T05:22:03.254Z,94758.00
2023-05-14T05:23:03.175Z,94758.00
2023-05-14T05:24:03.201Z,94758.00
2023-05-14T05:25:03.187Z,94756.00
2023-05-14T05:26:03.224Z,94756.00
2023-05-14T05:27:03.210Z,94758.00
2023-05-14T05:28:03.176Z,94758.00
2023-05-14T05:29:03.199Z,94762.00
2023-05-14T05:30:03.208Z,94762.00
2023-05-14T05:31:03.204Z,94758.00
2023-05-14T05:32:03.143Z,94760.00
2023-05-14T05:33:03.226Z,94760.00
2023-05-14T05:34:03.147Z,94758.00
2023-05-14T05:35:03.154Z,94756.00
2023-05-14T05:36:03.121Z,94754.00
2023-05-14T05:37:03.165Z,94756.00
2023-05-14T05:38:03.101Z,94756.00
2023-05-14T05:39:03.104Z,94754.00
2023-05-14T05:40:03.084Z,94756.00
2023-05-14T05:41:03.130Z,94758.00
2023-05-14T05:42:03.090Z,94758.00
2023-05-14T05:43:03.065Z,94754.00
2023-05-14T05:44:03.091Z,94752.00
2023-05-14T05:45:03.841Z,94750.00
2023-05-14T05:46:03.094Z,94750.00
2023-05-14T05:47:03.097Z,94750.00
2023-05-14T05:48:03.069Z,94748.00
2023-05-14T05:49:03.086Z,94748.00
2023-05-14T05:50:03.033Z,94748.00
2023-05-14T05:51:03.016Z,94748.00
2023-05-14T05:52:03.004Z,94748.00
2023-05-14T05:53:02.997Z,94748.00
2023-05-14T05:54:03.001Z,94748.00
2023-05-14T05:55:03.015Z,94746.00
2023-05-14T05:56:03.015Z,94748.00
2023-05-14T05:57:02.992Z,94746.00
2023-05-14T05:58:02.961Z,94746.00
2023-05-14T05:59:02.946Z,94746.00
2023-05-14T06:00:02.940Z,94744.00
2023-05-14T06:01:02.955Z,94744.00
2023-05-14T06:02:02.986Z,94740.00
2023-05-14T06:03:02.972Z,94742.00
2023-05-14T06:04:02.936Z,94740.00
2023-05-14T06:05:02.994Z,94742.00
2023-05-14T06:06:02.944Z,94738.00
2023-05-14T06:07:02.955Z,94738.00
2023-05-14T06:08:02.890Z,94738.00
2023-05-14T06:09:02.932Z,94736.00
2023-05-14T06:10:02.910Z,94736.00
2023-05-14T06:11:02.861Z,94738.00
2023-05-14T06:12:02.872Z,94738.00
2023-05-14T06:13:02.852Z,94738.00
2023-05-14T06:14:02.864Z,94738.00
2023-05-14T06:15:02.907Z,94740.00
2023-05-14T06:16:02.898Z,94740.00
2023-05-14T06:17:02.890Z,94740.00
2023-05-14T06:18:03.024Z,94738.00
2023-05-14T06:19:02.917Z,94736.00
2023-05-14T06:20:02.830Z,94734.00
2023-05-14T06:21:02.841Z,94734.00
2023-05-14T06:22:02.815Z,94734.00
2023-05-14T06:23:02.814Z,94732.00
2023-05-14T06:24:02.793Z,94732.00
2023-05-14T06:25:02.771Z,94732.00
2023-05-14T06:26:02.807Z,94734.00
2023-05-14T06:27:02.916Z,94732.00
2023-05-14T06:28:02.781Z,94728.00
2023-05-14T06:29:02.750Z,94726.00
2023-05-14T06:30:02.762Z,94724.00
2023-05-14T06:31:02.764Z,94724.00
2023-05-14T06:32:02.785Z,94724.00
2023-05-14T06:33:02.768Z,94728.00
2023-05-14T06:34:02.734Z,94724.00
2023-05-14T06:35:02.747Z,94724.00
2023-05-14T06:36:02.689Z,94722.00
2023-05-14T06:37:02.697Z,94720.00
2023-05-14T06:38:02.722Z,94722.00
2023-05-14T06:39:02.698Z,94722.00
2023-05-14T06:40:02.704Z,94718.00
2023-05-14T06:41:02.714Z,94718.00
2023-05-14T06:42:02.720Z,94716.00
2023-05-14T06:43:02.690Z,94722.00
2023-05-14T06:44:02.682Z,94722.00
2023-05-14T06:45:02.703Z,94722.00
2023-05-14T06:46:02.663Z,94722.00
2023-05-14T06:47:02.875Z,94724.00
2023-05-14T06:48:02.752Z,94722.00
2023-05-14T06:49:02.716Z,94726.00
2023-05-14T06:50:02.599Z,94722.00
2023-05-14T06:51:02.630Z,94724.00
2023-05-14T06:52:02.612Z,94724.00
2023-05-14T06:53:02.636Z,94722.00
2023-05-14T06:54:02.638Z,94722.00
2023-05-14T06:55:02.635Z,94720.00
2023-05-14T06:56:02.645Z,94720.00
2023-05-14T06:57:02.918Z,94718.00
2023-05-14T06:58:02.645Z,94720.00
2023-05-14T06:59:02.684Z,94722.00
2023-05-14T07:00:03.685Z,94722.00
2023-05-14T07:01:02.758Z,94722.00
2023-05-14T07:02:02.670Z,94722.00
2023-05-14T07:03:02.713Z,94722.00
2023-05-14T07:04:02.713Z,94722.00
2023-05-14T07:05:02.722Z,94720.00
2023-05-14T07:06:02.701Z,94718.00
2023-05-14T07:07:02.696Z,94716.00
2023-05-14T07:08:02.750Z,94715.00
2023-05-14T07:09:02.766Z,94716.00
2023-05-14T07:10:02.771Z,94715.00
2023-05-14T07:11:02.807Z,94713.00
2023-05-14T07:12:02.813Z,94713.00
2023-05-14T07:13:02.797Z,94711.00
2023-05-14T07:14:02.785Z,94713.00
2023-05-14T07:15:02.815Z,94713.00
2023-05-14T07:16:02.836Z,94713.00
2023-05-14T07:17:02.917Z,94713.00
2023-05-14T07:18:02.883Z,94711.00
2023-05-14T07:19:02.889Z,94715.00
2023-05-14T07:20:02.852Z,94709.00
2023-05-14T07:21:02.883Z,94711.00
2023-05-14T07:22:02.877Z,94707.00
2023-05-14T07:23:02.877Z,94705.00
2023-05-14T07:24:02.895Z,94705.00
2023-05-14T07:25:02.915Z,94701.00
2023-05-14T07:26:02.901Z,94699.00
2023-05-14T07:27:02.901Z,94697.00
2023-05-14T07:28:02.911Z,94693.00
2023-05-14T07:29:02.923Z,94693.00
2023-05-14T07:30:02.921Z,94689.00
2023-05-14T07:31:03.020Z,94689.00
2023-05-14T07:32:03.048Z,94687.00
2023-05-14T07:33:03.027Z,94685.00
2023-05-14T07:34:02.996Z,94681.00
2023-05-14T07:35:02.962Z,94683.00
2023-05-14T07:36:02.997Z,94679.00
2023-05-14T07:37:03.007Z,94677.00
2023-05-14T07:38:03.051Z,94677.00
2023-05-14T07:39:03.024Z,94673.00
2023-05-14T07:40:03.062Z,94677.00
2023-05-14T07:41:03.068Z,94671.00
2023-05-14T07:42:03.051Z,94673.00
2023-05-14T07:43:03.051Z,94669.00
2023-05-14T07:44:03.110Z,94671.00
2023-05-14T07:45:03.100Z,94669.00
2023-05-14T07:46:03.121Z,94666.00
2023-05-14T07:47:03.146Z,94664.00
2023-05-14T07:48:03.157Z,94666.00
2023-05-14T07:49:03.121Z,94664.00
2023-05-14T07:50:03.120Z,94662.00
2023-05-14T07:51:03.136Z,94662.00
2023-05-14T07:52:03.447Z,94662.00
2023-05-14T07:53:03.158Z,94662.00
2023-05-14T07:54:03.152Z,94660.00
2023-05-14T07:55:03.165Z,94664.00
2023-05-14T07:56:03.171Z,94664.00
2023-05-14T07:57:03.189Z,94664.00
2023-05-14T07:58:03.175Z,94660.00
2023-05-14T07:59:03.902Z,94660.00
2023-05-14T08:00:03.205Z,94658.00
2023-05-14T08:01:03.275Z,94656.00
2023-05-14T08:02:03.276Z,94656.00
2023-05-14T08:03:03.409Z,94656.00
2023-05-14T08:04:03.370Z,94654.00
2023-05-14T08:05:03.255Z,94652.00
2023-05-14T08:06:03.261Z,94648.00
2023-05-14T08:07:03.277Z,94648.00
2023-05-14T08:08:03.274Z,94648.00
2023-05-14T08:09:03.277Z,94646.00
2023-05-14T08:10:03.339Z,94646.00
2023-05-14T08:11:03.342Z,94644.00
2023-05-14T08:12:03.357Z,94644.00
2023-05-14T08:13:03.397Z,94642.00
2023-05-14T08:14:03.358Z,94642.00
2023-05-14T08:15:03.366Z,94640.00
2023-05-14T08:16:03.364Z,94636.00
2023-05-14T08:17:03.445Z,94634.00
2023-05-14T08:18:03.592Z,94634.00
2023-05-14T08:19:03.437Z,94630.00
2023-05-14T08:20:03.434Z,94630.00
2023-05-14T08:21:03.799Z,94622.00
2023-05-14T08:22:03.401Z,94622.00
2023-05-14T08:23:03.430Z,94622.00
2023-05-14T08:24:03.466Z,94622.00
2023-05-14T08:25:03.449Z,94622.00
2023-05-14T08:26:03.482Z,94622.00
2023-05-14T08:27:03.506Z,94622.00
2023-05-14T08:28:03.503Z,94620.00
2023-05-14T08:29:03.502Z,94618.00
2023-05-14T08:30:03.498Z,94615.00
2023-05-14T08:31:03.534Z,94615.00
2023-05-14T08:32:11.678Z,94615.00
2023-05-14T08:33:04.615Z,94615.00
2023-05-14T08:34:03.508Z,94613.00
2023-05-14T08:35:03.551Z,94615.00
2023-05-14T08:36:03.465Z,94611.00
2023-05-14T08:37:03.927Z,94613.00
2023-05-14T08:38:03.465Z,94611.00
2023-05-14T08:39:03.488Z,94609.00
2023-05-14T08:40:03.475Z,94613.00
2023-05-14T08:41:03.439Z,94611.00
2023-05-14T08:42:03.459Z,94611.00
2023-05-14T08:43:03.408Z,94613.00
2023-05-14T08:44:03.426Z,94611.00
2023-05-14T08:45:03.430Z,94611.00
2023-05-14T08:46:03.410Z,94607.00
2023-05-14T08:47:03.402Z,94607.00
2023-05-14T08:48:03.479Z,94609.00
2023-05-14T08:49:03.444Z,94607.00
2023-05-14T08:50:03.349Z,94605.00
2023-05-14T08:51:03.417Z,94605.00
2023-05-14T08:52:03.380Z,94603.00
2023-05-14T08:53:03.348Z,94603.00
2023-05-14T08:54:03.377Z,94599.00
2023-05-14T08:55:03.334Z,94599.00
2023-05-14T08:56:03.982Z,94601.00
2023-05-14T08:57:03.338Z,94601.00
2023-05-14T08:58:03.302Z,94603.00
2023-05-14T08:59:03.291Z,94599.00
2023-05-14T09:00:03.282Z,94599.00
2023-05-14T09:01:03.289Z,94599.00
2023-05-14T09:02:03.360Z,94597.00
2023-05-14T09:03:03.348Z,94597.00
2023-05-14T09:04:03.372Z,94595.00
2023-05-14T09:05:03.303Z,94597.00
2023-05-14T09:06:03.319Z,94595.00
2023-05-14T09:07:03.339Z,94595.00
2023-05-14T09:08:03.336Z,94597.00
2023-05-14T09:09:03.385Z,94595.00
2023-05-14T09:10:03.368Z,94595.00
2023-05-14T09:11:03.337Z,94597.00
2023-05-14T09:12:03.380Z,94595.00
2023-05-14T09:13:03.377Z,94595.00
2023-05-14T09:14:03.352Z,94591.00
2023-05-14T09:15:03.355Z,94593.00
2023-05-14T09:16:03.994Z,94593.00
2023-05-14T09:17:03.346Z,94593.00
2023-05-14T09:18:03.396Z,94593.00
2023-05-14T09:19:03.363Z,94591.00
2023-05-14T09:20:03.373Z,94589.00
2023-05-14T09:21:03.373Z,94591.00
2023-05-14T09:22:03.326Z,94587.00
2023-05-14T09:23:03.353Z,94587.00
2023-05-14T09:24:03.349Z,94579.00
2023-05-14T09:25:03.368Z,94579.00
2023-05-14T09:26:03.366Z,94579.00
2023-05-14T09:27:03.368Z,94577.00
2023-05-14T09:28:03.385Z,94575.00
2023-05-14T09:29:03.401Z,94575.00
2023-05-14T09:30:03.390Z,94573.00
2023-05-14T09:31:03.463Z,94575.00
2023-05-14T09:32:03.443Z,94571.00
2023-05-14T09:33:03.457Z,94571.00
2023-05-14T09:34:03.425Z,94568.00
2023-05-14T09:35:03.452Z,94571.00
2023-05-14T09:36:03.418Z,94568.00
2023-05-14T09:37:03.482Z,94566.00
2023-05-14T09:38:03.433Z,94566.00
2023-05-14T09:39:03.434Z,94566.00
2023-05-14T09:40:03.425Z,94564.00
2023-05-14T09:41:03.450Z,94560.00
2023-05-14T09:42:03.471Z,94556.00
2023-05-14T09:43:03.397Z,94554.00
2023-05-14T09:44:05.434Z,94552.00
2023-05-14T09:45:03.406Z,94550.00
2023-05-14T09:46:03.446Z,94550.00
2023-05-14T09:47:03.427Z,94548.00
2023-05-14T09:48:03.495Z,94544.00
2023-05-14T09:49:03.379Z,94544.00
2023-05-14T09:50:03.404Z,94544.00
2023-05-14T09:51:04.779Z,94542.00
2023-05-14T09:52:03.468Z,94542.00
2023-05-14T09:53:03.387Z,94540.00
2023-05-14T09:54:03.377Z,94540.00
2023-05-14T09:55:03.357Z,94538.00
2023-05-14T09:56:03.364Z,94534.00
2023-05-14T09:57:03.321Z,94538.00
2023-05-14T09:58:03.324Z,94534.00
2023-05-14T09:59:03.361Z,94534.00
2023-05-14T10:00:03.314Z,94534.00
2023-05-14T10:01:03.339Z,94532.00
2023-05-14T10:02:03.301Z,94532.00
2023-05-14T10:03:03.370Z,94532.00
2023-05-14T10:04:03.315Z,94530.00
2023-05-14T10:05:03.265Z,94530.00
2023-05-14T10:06:03.303Z,94532.00
2023-05-14T10:07:03.261Z,94532.00
2023-05-14T10:08:03.267Z,94532.00
2023-05-14T10:09:03.271Z,94528.00
2023-05-14T10:10:03.264Z,94530.00
2023-05-14T10:11:03.260Z,94528.00
2023-05-14T10:12:03.505Z,94530.00
2023-05-14T10:13:03.224Z,94526.00
2023-05-14T10:14:03.218Z,94528.00
2023-05-14T10:15:03.203Z,94528.00
2023-05-14T10:16:03.209Z,94530.00
2023-05-14T10:17:03.224Z,94528.00
2023-05-14T10:18:03.232Z,94530.00
2023-05-14T10:19:03.214Z,94526.00
2023-05-14T10:20:03.192Z,94524.00
2023-05-14T10:21:03.195Z,94526.00
2023-05-14T10:22:03.166Z,94526.00
2023-05-14T10:23:03.172Z,94520.00
2023-05-14T10:24:03.158Z,94522.00
2023-05-14T10:25:03.143Z,94520.00
2023-05-14T10:26:03.127Z,94520.00
2023-05-14T10:27:03.147Z,94516.00
2023-05-14T10:28:03.140Z,94514.00
2023-05-14T10:29:03.149Z,94513.00
2023-05-14T10:30:03.140Z,94513.00
2023-05-14T10:31:03.120Z,94509.00
2023-05-14T10:32:03.116Z,94509.00
2023-05-14T10:33:03.188Z,94511.00
2023-05-14T10:34:03.059Z,94505.00
2023-05-14T10:35:03.180Z,94505.00
2023-05-14T10:36:03.154Z,94503.00
2023-05-14T10:37:03.064Z,94505.00
2023-05-14T10:38:03.076Z,94507.00
2023-05-14T10:39:03.052Z,94507.00
2023-05-14T10:40:03.083Z,94507.00
2023-05-14T10:41:03.128Z,94509.00
2023-05-14T10:42:03.094Z,94505.00
2023-05-14T10:43:03.048Z,94505.00
2023-05-14T10:44:03.050Z,94505.00
2023-05-14T10:45:03.000Z,94503.00
2023-05-14T10:46:03.066Z,94505.00
2023-05-14T10:47:03.202Z,94505.00
2023-05-14T10:48:03.016Z,94501.00
2023-05-14T10:49:02.996Z,94501.00
2023-05-14T10:50:03.128Z,94501.00
2023-05-14T10:51:03.191Z,94501.00
2023-05-14T10:52:03.113Z,94505.00
2023-05-14T10:53:03.566Z,94503.00
2023-05-14T10:54:03.133Z,94499.00
2023-05-14T10:55:03.934Z,94497.00
2023-05-14T10:56:03.184Z,94495.00
2023-05-14T10:57:03.217Z,94495.00
2023-05-14T10:58:03.230Z,94491.00
2023-05-14T10:59:03.273Z,94487.00
2023-05-14T11:00:03.316Z,94485.00
2023-05-14T11:01:03.325Z,94481.00
2023-05-14T11:02:03.376Z,94481.00
2023-05-14T11:03:03.468Z,94481.00
2023-05-14T11:04:03.536Z,94477.00
2023-05-14T11:05:03.475Z,94475.00
2023-05-14T11:06:03.481Z,94475.00
2023-05-14T11:07:03.485Z,94473.00
2023-05-14T11:08:03.990Z,94471.00
2023-05-14T11:09:03.571Z,94471.00
2023-05-14T11:10:03.598Z,94469.00
2023-05-14T11:11:03.665Z,94471.00
2023-05-14T11:12:03.703Z,94471.00
2023-05-14T11:13:03.667Z,94467.00
2023-05-14T11:14:03.747Z,94467.00
2023-05-14T11:15:03.769Z,94467.00
2023-05-14T11:16:15.179Z,94466.00
2023-05-14T11:17:04.785Z,94466.00
2023-05-14T11:18:04.044Z,94466.00
2023-05-14T11:19:04.006Z,94467.00
2023-05-14T11:20:03.757Z,94462.00
2023-05-14T11:21:03.776Z,94464.00
2023-05-14T11:22:03.719Z,94462.00
2023-05-14T11:23:03.754Z,94460.00
2023-05-14T11:24:03.712Z,94458.00
2023-05-14T11:25:03.736Z,94454.00
2023-05-14T11:26:03.797Z,94456.00
2023-05-14T11:27:03.702Z,94454.00
2023-05-14T11:28:04.049Z,94452.00
2023-05-14T11:29:03.721Z,94452.00
2023-05-14T11:30:03.757Z,94454.00
2023-05-14T11:31:03.821Z,94452.00
2023-05-14T11:32:03.976Z,94452.00
2023-05-14T11:33:03.921Z,94450.00
2023-05-14T11:34:03.893Z,94452.00
2023-05-14T11:35:03.934Z,94450.00
2023-05-14T11:36:03.943Z,94452.00
2023-05-14T11:37:03.945Z,94450.00
2023-05-14T11:38:04.039Z,94446.00
2023-05-14T11:39:03.961Z,94446.00
2023-05-14T11:40:03.956Z,94448.00
2023-05-14T11:41:03.972Z,94446.00
2023-05-14T11:42:04.037Z,94446.00
2023-05-14T11:43:04.042Z,94444.00
2023-05-14T11:44:04.042Z,94442.00